Time;durP1;ratioP1;P1;durP2;ratioP2;P2;SDS_P1;SDS_P2;PMS_P1;PMS_P2;Temp;Humidity;BMP_temperature;BMP_pressure;BME280_temperature;BME280_humidity;BME280_pressure;Samples;Min_cycle;Max_cycle;Signal;HPM_P1;HPM_P2
2023/12/21 00:01:08;;;;;;;14.38;7.25;;;;;;;7.94;100.00;100776.91;6155079;23;20006;-80
2023/12/21 00:03:33;;;;;;;14.60;7.88;;;;;;;7.59;100.00;100710.22;6155407;23;20006;-79
2023/12/21 00:05:59;;;;;;;15.75;6.60;;;;;;;7.89;100.00;100754.03;6155352;23;20373;-79
2023/12/21 00:08:24;;;;;;;15.07;7.22;;;;;;;7.92;100.00;100745.31;6154875;23;20033;-78
2023/12/21 00:10:49;;;;;;;14.85;6.80;;;;;;;7.64;100.00;100697.94;6154449;23;20005;-79
2023/12/21 00:13:15;;;;;;;14.32;7.47;;;;;;;7.91;100.00;100741.91;6154090;23;20357;-77
2023/12/21 00:15:40;;;;;;;14.05;7.43;;;;;;;7.91;100.00;100729.06;6155026;23;20006;-78
2023/12/21 00:18:05;;;;;;;12.60;7.45;;;;;;;7.60;100.00;100667.34;6155157;23;20024;-78
2023/12/21 00:20:31;;;;;;;16.27;8.05;;;;;;;7.90;100.00;100714.56;6155149;23;20005;-78
2023/12/21 00:22:56;;;;;;;14.88;7.18;;;;;;;7.68;100.00;100686.59;6155366;23;20005;-80
2023/12/21 00:25:21;;;;;;;15.57;7.30;;;;;;;7.91;100.00;100717.94;6155168;23;20428;-79
2023/12/21 00:27:46;;;;;;;14.80;7.00;;;;;;;7.92;100.00;100709.31;6155037;23;20005;-79
2023/12/21 00:30:12;;;;;;;16.00;7.03;;;;;;;7.88;100.00;100697.56;6154903;23;20458;-79
2023/12/21 00:32:38;;;;;;;15.60;6.90;;;;;;;7.90;100.00;100696.56;6155209;23;20009;-84
2023/12/21 00:35:03;;;;;;;14.00;6.28;;;;;;;7.77;100.00;100675.00;6155349;23;20005;-84
2023/12/21 00:37:30;;;;;;;20.77;6.82;;;;;;;7.86;100.00;100697.63;6154820;23;20009;-85
2023/12/21 00:39:56;;;;;;;16.85;6.28;;;;;;;7.43;100.00;100627.13;6128800;23;20009;-82
2023/12/21 00:42:22;;;;;;;15.98;6.18;;;;;;;7.87;100.00;100683.88;6154797;23;20001;-83
2023/12/21 00:44:47;;;;;;;14.05;5.95;;;;;;;7.86;100.00;100682.19;6154867;23;20375;-86
2023/12/21 00:47:12;;;;;;;15.13;5.70;;;;;;;7.88;100.00;100672.69;6155381;23;20002;-85
2023/12/21 00:49:38;;;;;;;15.77;6.30;;;;;;;7.88;100.00;100666.69;6156012;23;19997;-84
2023/12/21 00:52:03;;;;;;;16.02;5.53;;;;;;;7.78;100.00;100650.13;6156968;23;20011;-85
2023/12/21 00:54:28;;;;;;;14.05;5.95;;;;;;;7.49;100.00;100598.56;6156888;23;20391;-86
2023/12/21 00:56:55;;;;;;;13.27;6.13;;;;;;;7.87;100.00;100654.75;6156564;23;20013;-86
2023/12/21 00:59:21;;;;;;;13.43;5.88;;;;;;;7.80;100.00;100646.53;6156520;23;20076;-85
2023/12/21 01:01:46;;;;;;;14.85;5.38;;;;;;;7.86;100.00;100653.91;6156870;23;20001;-84
2023/12/21 01:04:11;;;;;;;12.40;5.63;;;;;;;7.85;100.00;100644.53;6156998;23;20436;-85
2023/12/21 01:06:37;;;;;;;14.75;6.38;;;;;;;7.78;100.00;100632.13;6156826;23;20034;-84
2023/12/21 01:09:05;;;;;;;15.93;5.82;;;;;;;7.87;100.00;100627.31;6156169;23;20435;-85
2023/12/21 01:11:30;;;;;;;16.65;6.15;;;;;;;7.76;100.00;100607.31;6156454;23;20005;-85
2023/12/21 01:13:55;;;;;;;16.88;5.97;;;;;;;7.87;100.00;100621.34;6156645;23;20080;-86
2023/12/21 01:16:21;;;;;;;14.90;6.15;;;;;;;7.85;100.00;100608.56;6156305;23;20064;-85
2023/12/21 01:18:47;;;;;;;13.20;5.95;;;;;;;7.59;100.00;100568.88;6156760;23;20009;-81
2023/12/21 01:21:12;;;;;;;13.52;6.15;;;;;;;7.59;100.00;100566.31;6156486;23;20006;-84
2023/12/21 01:23:37;;;;;;;17.75;6.63;;;;;;;7.87;100.00;100614.47;6156242;23;20439;-85
2023/12/21 01:26:03;;;;;;;15.77;6.32;;;;;;;7.89;100.00;100616.94;6156527;23;20040;-86
2023/12/21 01:28:28;;;;;;;15.75;6.70;;;;;;;7.90;100.00;100608.31;6156557;23;20085;-84
2023/12/21 01:30:54;;;;;;;15.65;5.97;;;;;;;7.88;100.00;100597.28;6156349;23;20444;-86
2023/12/21 01:33:19;;;;;;;18.02;6.45;;;;;;;7.76;100.00;100578.22;6156566;23;20017;-86
2023/12/21 01:35:44;;;;;;;15.43;6.38;;;;;;;7.93;100.00;100590.13;6156365;23;20005;-86
2023/12/21 01:38:09;;;;;;;15.13;6.22;;;;;;;7.94;100.00;100586.66;6156286;23;20014;-86
2023/12/21 01:40:35;;;;;;;13.25;6.07;;;;;;;7.95;100.00;100588.31;6155964;23;20001;-85
2023/12/21 01:43:00;;;;;;;20.42;6.50;;;;;;;7.68;100.00;100549.56;6156300;23;20009;-85
2023/12/21 01:45:25;;;;;;;19.33;6.18;;;;;;;7.95;100.00;100593.44;6156080;23;20001;-81
2023/12/21 01:47:51;;;;;;;16.90;6.45;;;;;;;7.98;100.00;100583.00;6156259;23;20010;-84
2023/12/21 01:50:17;;;;;;;19.30;5.95;;;;;;;7.91;100.00;100571.41;6156000;23;20006;-86
2023/12/21 01:52:43;;;;;;;15.60;6.35;;;;;;;7.82;100.00;100536.75;6156494;23;20021;-85
2023/12/21 01:55:11;;;;;;;15.23;5.80;;;;;;;7.96;100.00;100565.09;6156327;23;20132;-83
2023/12/21 01:57:37;;;;;;;16.40;5.97;;;;;;;7.91;100.00;100553.41;6155977;23;20324;-85
2023/12/21 02:00:02;;;;;;;17.65;6.55;;;;;;;7.96;100.00;100566.81;6156078;23;20001;-78
2023/12/21 02:02:28;;;;;;;14.15;6.00;;;;;;;7.84;100.00;100550.34;6156309;23;20025;-79
2023/12/21 02:04:53;;;;;;;17.20;5.85;;;;;;;7.96;100.00;100571.94;6153653;23;20073;-80
2023/12/21 02:07:19;;;;;;;18.27;7.05;;;;;;;7.65;100.00;100529.97;6130306;23;20439;-78
2023/12/21 02:09:44;;;;;;;18.58;7.03;;;;;;;7.97;100.00;100576.22;6156145;23;20037;-78
2023/12/21 02:12:10;;;;;;;17.05;7.25;;;;;;;7.91;100.00;100577.38;6155766;23;20423;-78
2023/12/21 02:14:36;;;;;;;19.67;6.90;;;;;;;7.95;100.00;100581.41;6156043;23;20005;-79
2023/12/21 02:17:10;;;;;;;16.67;6.75;;;;;;;7.77;100.00;100541.34;6155610;23;20427;-78
2023/12/21 02:19:37;;;;;;;16.13;6.57;;;;;;;7.71;100.00;100518.53;6155776;23;20009;-79
2023/12/21 02:22:04;;;;;;;17.00;6.63;;;;;;;7.94;100.00;100556.63;6155739;23;19998;-78
2023/12/21 02:24:30;;;;;;;17.35;6.90;;;;;;;7.94;100.00;100560.94;6155596;23;20002;-79
2023/12/21 02:26:55;;;;;;;24.80;7.70;;;;;;;7.89;100.00;100540.63;6155715;23;20029;-78
2023/12/21 02:29:20;;;;;;;18.13;7.28;;;;;;;7.93;100.00;100546.44;6155667;23;20033;-79
2023/12/21 02:31:47;;;;;;;16.75;7.95;;;;;;;7.84;100.00;100527.19;6155391;23;20014;-80
2023/12/21 02:34:12;;;;;;;19.67;7.50;;;;;;;7.58;100.00;100476.47;6155199;23;20009;-83
2023/12/21 02:36:39;;;;;;;16.20;6.75;;;;;;;7.71;100.00;100501.38;6153397;23;20017;-79
2023/12/21 02:39:04;;;;;;;14.70;6.60;;;;;;;7.83;100.00;100504.97;6155727;23;20006;-80
2023/12/21 02:41:29;;;;;;;16.02;7.15;;;;;;;7.90;100.00;100515.75;6155519;23;19997;-83
2023/12/21 02:43:55;;;;;;;17.75;6.95;;;;;;;7.89;100.00;100512.34;6155923;23;20428;-81
2023/12/21 02:46:24;;;;;;;23.25;7.15;;;;;;;7.76;100.00;100491.63;6154215;23;20443;-80
2023/12/21 02:48:49;;;;;;;16.65;6.32;;;;;;;7.90;100.00;100508.88;6155971;23;20001;-78
2023/12/21 02:51:15;;;;;;;18.08;6.60;;;;;;;7.91;100.00;100520.81;6155956;23;20068;-83
2023/12/21 02:53:40;;;;;;;17.60;6.25;;;;;;;7.76;100.00;100483.09;6155651;23;19998;-83
2023/12/21 02:56:06;;;;;;;18.38;6.30;;;;;;;7.74;100.00;100477.22;6155483;23;20005;-83
2023/12/21 02:58:31;;;;;;;18.92;5.65;;;;;;;7.87;100.00;100488.50;6155916;23;20009;-80
2023/12/21 03:00:56;;;;;;;23.13;5.43;;;;;;;7.89;100.00;100485.81;6155333;23;20380;-79
2023/12/21 03:03:21;;;;;;;17.73;6.35;;;;;;;7.91;100.00;100495.09;6155751;23;20080;-81
2023/12/21 03:05:47;;;;;;;15.90;5.47;;;;;;;7.73;100.00;100465.28;6155507;23;20005;-80
2023/12/21 03:08:12;;;;;;;16.60;5.95;;;;;;;7.56;100.00;100427.69;6155816;23;20097;-78
2023/12/21 03:10:38;;;;;;;14.80;5.53;;;;;;;7.91;100.00;100466.81;6155506;23;20032;-79
2023/12/21 03:13:04;;;;;;;19.20;5.78;;;;;;;7.87;100.00;100462.78;6154833;23;20012;-81
2023/12/21 03:15:29;;;;;;;20.08;6.25;;;;;;;7.92;100.00;100452.22;6155398;23;20002;-81
2023/12/21 03:17:54;;;;;;;19.50;6.45;;;;;;;7.92;100.00;100423.94;6155584;23;20009;-78
2023/12/21 03:20:20;;;;;;;19.83;6.30;;;;;;;7.91;100.00;100420.53;6155654;23;20005;-79
2023/12/21 03:22:45;;;;;;;18.80;6.25;;;;;;;7.90;100.00;100411.19;6155807;23;20072;-80
2023/12/21 03:25:10;;;;;;;20.33;7.15;;;;;;;7.72;100.00;100371.94;6155652;23;20324;-82
2023/12/21 03:27:36;;;;;;;20.02;6.90;;;;;;;7.88;100.00;100389.06;6155002;23;20001;-78
2023/12/21 03:30:01;;;;;;;16.40;6.50;;;;;;;7.73;100.00;100359.91;6152600;23;20018;-79
2023/12/21 03:32:27;;;;;;;22.23;7.47;;;;;;;7.90;100.00;100388.03;6155307;23;20005;-78
2023/12/21 03:34:52;;;;;;;21.85;7.30;;;;;;;7.58;100.00;100343.66;6155305;23;20069;-81
2023/12/21 03:37:18;;;;;;;19.48;7.07;;;;;;;7.50;100.00;100314.19;6154436;23;20022;-79
2023/12/21 03:39:49;;;;;;;18.02;6.68;;;;;;;6.61;100.00;100171.25;6155189;23;20012;-78
2023/12/21 03:42:14;;;;;;;23.17;7.38;;;;;;;7.84;100.00;100357.53;6155131;23;20002;-79
2023/12/21 03:44:40;;;;;;;16.40;7.22;;;;;;;7.91;100.00;100369.13;6154936;23;20002;-79
2023/12/21 03:47:05;;;;;;;19.90;7.13;;;;;;;7.91;100.00;100361.41;6155092;23;20442;-80
2023/12/21 03:49:30;;;;;;;23.27;7.65;;;;;;;7.92;100.00;100347.63;6128705;23;20013;-79
2023/12/21 03:51:56;;;;;;;18.65;7.10;;;;;;;7.92;100.00;100360.50;6155277;23;20005;-78
2023/12/21 03:54:21;;;;;;;19.63;7.68;;;;;;;7.92;100.00;100362.22;6154960;23;20060;-78
2023/12/21 03:56:46;;;;;;;20.45;6.90;;;;;;;7.95;100.00;100350.00;6154729;23;20012;-79
2023/12/21 03:59:12;;;;;;;21.00;6.70;;;;;;;7.95;100.00;100341.47;6154949;23;20012;-79
2023/12/21 04:01:37;;;;;;;21.65;7.75;;;;;;;7.95;100.00;100333.75;6155070;23;20006;-81
2023/12/21 04:04:02;;;;;;;18.25;7.10;;;;;;;7.95;100.00;100332.00;6155140;23;20144;-80
2023/12/21 04:06:28;;;;;;;19.75;7.07;;;;;;;7.95;100.00;100333.75;6155453;23;20012;-83
2023/12/21 04:08:54;;;;;;;21.25;7.30;;;;;;;7.97;100.00;100331.94;6155495;23;20066;-79
2023/12/21 04:11:20;;;;;;;20.52;6.70;;;;;;;7.98;100.00;100331.84;6155394;23;20001;-78
2023/12/21 04:13:49;;;;;;;19.42;7.35;;;;;;;8.03;100.00;100329.00;6155366;23;20331;-79
2023/12/21 04:16:14;;;;;;;18.10;7.13;;;;;;;7.87;100.00;100284.56;6155117;23;20032;-79
2023/12/21 04:18:39;;;;;;;27.73;7.50;;;;;;;8.11;100.00;100315.69;6155020;23;20013;-80
2023/12/21 04:21:07;;;;;;;18.45;6.25;;;;;;;8.03;100.00;100288.69;6154814;23;20001;-80
2023/12/21 04:23:33;;;;;;;21.42;7.53;;;;;;;8.16;100.00;100299.06;6155302;23;20076;-80
2023/12/21 04:25:59;;;;;;;18.70;8.15;;;;;;;8.18;100.00;100292.06;6157210;23;20037;-86
2023/12/21 04:28:25;;;;;;;20.13;6.85;;;;;;;8.01;100.00;100254.53;6157177;23;20144;-80
2023/12/21 04:30:51;;;;;;;20.73;7.45;;;;;;;8.27;100.00;100286.34;6157307;23;20383;-83
2023/12/21 04:33:18;;;;;;;18.10;6.78;;;;;;;8.30;100.00;100282.75;6128995;23;20005;-79
2023/12/21 04:35:46;;;;;;;18.48;8.10;;;;;;;8.32;100.00;100260.34;6156682;23;20428;-85
2023/12/21 04:38:12;;;;;;;20.90;8.00;;;;;;;8.26;100.00;100217.84;6156490;23;20108;-85
2023/12/21 04:40:37;;;;;;;24.80;9.75;;;;;;;8.41;100.00;100243.53;6156865;23;20328;-85
2023/12/21 04:43:04;;;;;;;16.63;8.40;;;;;;;8.43;100.00;100249.41;6130896;23;20004;-84
2023/12/21 04:45:29;;;;;;;19.02;8.05;;;;;;;8.30;100.00;100229.56;6157082;23;20095;-84
2023/12/21 04:47:54;;;;;;;19.20;8.93;;;;;;;8.47;100.00;100236.25;6156986;23;20428;-87
2023/12/21 04:50:20;;;;;;;17.92;7.75;;;;;;;8.28;100.00;100190.25;6156669;23;20001;-80
2023/12/21 04:52:46;;;;;;;22.45;7.72;;;;;;;8.48;100.00;100216.50;6156865;23;20005;-86
2023/12/21 04:55:12;;;;;;;20.42;8.32;;;;;;;8.50;100.00;100217.22;6157048;23;20001;-84
2023/12/21 04:57:38;;;;;;;17.75;7.50;;;;;;;8.51;100.00;100196.53;6156360;23;20372;-83
2023/12/21 05:00:06;;;;;;;17.40;7.82;;;;;;;8.39;100.00;100171.59;6156653;23;20009;-78
2023/12/21 05:02:31;;;;;;;19.20;7.47;;;;;;;8.37;100.00;100163.16;6129297;23;20005;-83
2023/12/21 05:04:57;;;;;;;17.63;7.00;;;;;;;8.59;100.00;100185.75;6156716;23;20012;-88
2023/12/21 05:07:22;;;;;;;16.77;6.57;;;;;;;8.59;100.00;100190.91;6156437;23;20016;-86
2023/12/21 05:09:47;;;;;;;14.77;6.50;;;;;;;8.48;100.00;100167.59;6157015;23;20040;-88
2023/12/21 05:12:13;;;;;;;14.98;6.38;;;;;;;8.30;100.00;100147.25;6156570;23;20317;-84
2023/12/21 05:14:38;;;;;;;15.93;6.20;;;;;;;8.61;100.00;100181.31;6156704;23;20052;-87
2023/12/21 05:17:03;;;;;;;19.05;6.50;;;;;;;8.62;100.00;100177.81;6156427;23;20040;-84
2023/12/21 05:19:29;;;;;;;19.23;5.70;;;;;;;8.63;100.00;100185.44;6156588;23;20408;-86
2023/12/21 05:21:54;;;;;;;12.57;5.63;;;;;;;8.68;100.00;100192.06;6156502;23;20367;-85
2023/12/21 05:24:19;;;;;;;18.33;5.57;;;;;;;8.70;100.00;100197.91;6156785;23;20008;-85
2023/12/21 05:26:45;;;;;;;13.52;5.00;;;;;;;8.58;100.00;100145.50;6156394;23;20009;-80
2023/12/21 05:29:10;;;;;;;19.48;5.30;;;;;;;8.36;100.00;100093.78;6156072;23;20005;-80
2023/12/21 05:31:37;;;;;;;14.23;4.85;;;;;;;8.41;100.00;100104.59;6156888;23;20002;-82
2023/12/21 05:34:03;;;;;;;14.13;4.75;;;;;;;8.70;100.00;100151.59;6156246;23;20009;-81
2023/12/21 05:36:29;;;;;;;13.98;4.30;;;;;;;8.54;100.00;100129.41;6154352;23;20157;-85
2023/12/21 05:38:54;;;;;;;12.75;4.30;;;;;;;8.72;100.00;100158.28;6156012;23;20029;-80
2023/12/21 05:41:20;;;;;;;14.30;4.40;;;;;;;8.72;100.00;100147.97;6156541;23;20005;-81
2023/12/21 05:43:45;;;;;;;12.88;4.07;;;;;;;8.74;100.00;100159.00;6156463;23;20012;-82
2023/12/21 05:46:11;;;;;;;11.27;3.85;;;;;;;8.61;100.00;100129.84;6156541;23;20060;-81
2023/12/21 05:48:36;;;;;;;15.48;3.95;;;;;;;8.62;100.00;100123.78;6156780;23;20298;-86
2023/12/21 05:51:02;;;;;;;13.98;3.78;;;;;;;8.78;100.00;100152.72;6156533;23;20016;-84
2023/12/21 05:53:32;;;;;;;12.98;3.80;;;;;;;8.77;100.00;100163.94;6156356;23;20092;-83
2023/12/21 05:55:58;;;;;;;10.30;3.35;;;;;;;8.80;100.00;100165.50;6156254;23;20001;-80
2023/12/21 05:58:23;;;;;;;11.40;3.05;;;;;;;8.81;100.00;100162.81;6155858;23;20020;-82
2023/12/21 06:00:48;;;;;;;12.43;3.95;;;;;;;8.74;100.00;100153.84;6155962;23;20005;-83
2023/12/21 06:03:14;;;;;;;10.45;3.42;;;;;;;8.84;100.00;100161.78;6155986;23;20008;-84
2023/12/21 06:05:39;;;;;;;11.27;3.40;;;;;;;8.63;100.00;100128.00;6155893;23;20005;-85
2023/12/21 06:08:05;;;;;;;12.07;3.55;;;;;;;8.60;100.00;100123.06;6156196;23;20040;-82
2023/12/21 06:10:30;;;;;;;14.48;3.65;;;;;;;8.73;100.00;100148.78;6156074;23;20048;-82
2023/12/21 06:12:55;;;;;;;15.35;4.35;;;;;;;8.67;100.00;100144.91;6156043;23;20036;-81
2023/12/21 06:15:21;;;;;;;11.82;3.97;;;;;;;8.53;100.00;100137.25;6148733;23;20010;-82
2023/12/21 06:17:46;;;;;;;10.77;3.80;;;;;;;8.56;100.00;100129.34;6126406;23;20014;-80
2023/12/21 06:20:14;;;;;;;10.38;4.55;;;;;;;8.53;100.00;100111.50;6126352;23;20428;-80
2023/12/21 06:22:39;;;;;;;10.35;4.35;;;;;;;8.49;100.00;100097.22;6124246;23;20048;-78
2023/12/21 06:25:05;;;;;;;10.95;4.60;;;;;;;8.44;100.00;100096.66;6114804;23;20006;-81
2023/12/21 06:27:30;;;;;;;13.25;4.63;;;;;;;8.42;100.00;100096.78;6126194;23;20444;-78
2023/12/21 06:29:56;;;;;;;12.27;4.57;;;;;;;8.41;100.00;100113.13;6125931;23;20060;-77
2023/12/21 06:32:22;;;;;;;12.85;5.15;;;;;;;8.43;100.00;100105.31;6100792;23;20009;-78
2023/12/21 06:34:47;;;;;;;13.20;5.40;;;;;;;8.41;100.00;100100.28;6126552;23;20069;-77
2023/12/21 06:37:13;;;;;;;10.40;4.90;;;;;;;8.18;100.00;100050.31;6125903;23;20464;-79
2023/12/21 06:39:38;;;;;;;13.80;5.45;;;;;;;8.30;100.00;100082.13;6125994;23;20002;-79
2023/12/21 06:42:05;;;;;;;12.38;5.13;;;;;;;8.44;100.00;100100.06;6126334;23;20033;-80
2023/12/21 06:44:31;;;;;;;14.68;6.85;;;;;;;8.44;100.00;100112.94;6099376;23;20014;-81
2023/12/21 06:46:56;;;;;;;13.43;5.53;;;;;;;8.46;100.00;100090.53;6125362;23;20417;-85
2023/12/21 06:49:22;;;;;;;16.80;6.07;;;;;;;8.47;100.00;100084.44;6126267;23;20001;-77
2023/12/21 06:51:47;;;;;;;10.98;4.57;;;;;;;8.43;100.00;100069.28;6126227;23;20068;-76
2023/12/21 06:54:12;;;;;;;11.15;5.55;;;;;;;8.37;100.00;100052.53;6126143;23;20012;-80
2023/12/21 06:56:38;;;;;;;12.27;4.82;;;;;;;8.50;100.00;100052.53;6126125;23;20073;-83
2023/12/21 06:59:04;;;;;;;11.82;4.75;;;;;;;8.48;100.00;100052.66;6126006;23;20016;-76
2023/12/21 07:01:30;;;;;;;13.52;5.05;;;;;;;8.40;100.00;100030.91;6125947;23;20340;-77
2023/12/21 07:03:56;;;;;;;13.07;5.20;;;;;;;8.46;100.00;100043.38;6125793;23;20006;-78
2023/12/21 07:06:22;;;;;;;12.57;5.13;;;;;;;8.41;100.00;100015.38;6126027;23;20052;-76
2023/12/21 07:08:48;;;;;;;11.60;4.90;;;;;;;8.15;100.00;99965.63;6125964;23;20033;-76
2023/12/21 07:11:13;;;;;;;13.57;5.72;;;;;;;8.47;100.00;100004.69;6126006;23;20062;-76
2023/12/21 07:13:39;;;;;;;13.88;4.63;;;;;;;8.28;100.00;99987.06;6125560;23;20002;-77
2023/12/21 07:16:05;;;;;;;11.13;3.75;;;;;;;8.56;100.00;100013.53;6139207;23;20018;-77
2023/12/21 07:18:30;;;;;;;15.80;4.88;;;;;;;8.58;100.00;100020.22;6154998;23;20013;-76
2023/12/21 07:20:56;;;;;;;13.65;3.92;;;;;;;8.53;100.00;100003.44;6155265;23;20036;-79
2023/12/21 07:23:21;;;;;;;15.25;4.57;;;;;;;8.64;100.00;100003.53;6155519;23;20029;-80
2023/12/21 07:25:47;;;;;;;12.50;3.78;;;;;;;8.44;100.00;99960.31;6155086;23;20111;-79
2023/12/21 07:28:12;;;;;;;9.27;3.45;;;;;;;8.72;100.00;99985.81;6154763;23;20005;-79
2023/12/21 07:30:37;;;;;;;15.30;3.60;;;;;;;8.68;100.00;99973.28;6155505;23;20108;-79
2023/12/21 07:33:03;;;;;;;11.05;3.58;;;;;;;8.59;100.00;99951.56;6155423;23;20045;-80
2023/12/21 07:35:29;;;;;;;10.27;2.90;;;;;;;8.81;100.00;99971.50;6155307;23;20404;-79
2023/12/21 07:37:54;;;;;;;9.98;2.92;;;;;;;8.84;100.00;99964.38;6155125;23;20051;-78
2023/12/21 07:40:19;;;;;;;12.63;3.13;;;;;;;8.53;100.00;99895.34;6153705;23;20033;-79
2023/12/21 07:42:45;;;;;;;10.77;3.25;;;;;;;8.79;100.00;99948.44;6155958;23;20002;-80
2023/12/21 07:45:10;;;;;;;9.35;2.78;;;;;;;8.86;100.00;99965.09;6128975;23;20005;-79
2023/12/21 07:47:35;;;;;;;10.85;3.03;;;;;;;8.84;100.00;99966.13;6155154;23;20005;-79
2023/12/21 07:50:02;;;;;;;9.77;2.92;;;;;;;8.82;100.00;99968.81;6155445;23;20005;-78
2023/12/21 07:52:27;;;;;;;12.05;2.78;;;;;;;8.66;100.00;99936.53;6155116;23;20008;-79
2023/12/21 07:54:52;;;;;;;13.05;3.08;;;;;;;8.78;100.00;99951.94;6155160;23;20005;-77
2023/12/21 07:57:18;;;;;;;11.50;3.40;;;;;;;8.69;100.00;99936.31;6154548;23;20088;-79
2023/12/21 07:59:44;;;;;;;7.45;2.63;;;;;;;8.45;100.00;99905.34;6154598;23;20009;-79
2023/12/21 08:02:09;;;;;;;10.55;2.92;;;;;;;8.75;100.00;99953.88;6155132;23;20002;-77
2023/12/21 08:04:37;;;;;;;10.73;3.85;;;;;;;8.59;100.00;99921.50;6154907;23;20005;-78
2023/12/21 08:07:03;;;;;;;14.60;3.92;;;;;;;8.66;100.00;99933.94;6154616;23;20077;-76
2023/12/21 08:09:30;;;;;;;12.57;3.63;;;;;;;8.36;100.00;99886.25;6154853;23;20021;-79
2023/12/21 08:11:55;;;;;;;9.85;3.75;;;;;;;8.61;100.00;99932.50;6154882;23;20447;-77
2023/12/21 08:14:21;;;;;;;11.18;4.30;;;;;;;8.45;100.00;99915.66;6154548;23;20001;-78
2023/12/21 08:16:46;;;;;;;8.63;3.85;;;;;;;8.56;100.00;99926.03;6154627;23;20009;-76
2023/12/21 08:19:12;;;;;;;12.25;4.72;;;;;;;8.58;100.00;99931.91;6154632;23;20375;-77
2023/12/21 08:21:37;;;;;;;8.52;4.40;;;;;;;8.55;100.00;99914.94;6154693;23;20129;-80
2023/12/21 08:24:03;;;;;;;7.90;3.90;;;;;;;8.38;100.00;99881.00;6127786;23;20012;-82
2023/12/21 08:26:29;;;;;;;10.48;4.70;;;;;;;8.54;100.00;99908.13;6154834;23;20458;-82
2023/12/21 08:28:54;;;;;;;8.50;4.20;;;;;;;8.51;100.00;99905.75;6154481;23;20006;-81
2023/12/21 08:31:26;;;;;;;10.60;4.63;;;;;;;8.56;100.00;99916.56;6153586;23;20005;-77
2023/12/21 08:33:52;;;;;;;7.38;3.80;;;;;;;8.37;100.00;99881.94;6155477;23;20006;-81
2023/12/21 08:36:18;;;;;;;9.98;3.95;;;;;;;8.59;100.00;99906.06;6155122;23;20084;-80
2023/12/21 08:38:43;;;;;;;9.25;3.72;;;;;;;8.45;100.00;99888.16;6154437;23;20506;-81
2023/12/21 08:41:08;;;;;;;8.48;4.03;;;;;;;8.59;100.00;99898.34;6128835;23;20016;-82
2023/12/21 08:43:36;;;;;;;10.00;3.80;;;;;;;8.53;100.00;99880.75;6154569;23;20010;-82
2023/12/21 08:46:03;;;;;;;7.95;3.95;;;;;;;8.55;100.00;99876.34;6154445;23;20408;-80
2023/12/21 08:48:29;;;;;;;12.43;4.10;;;;;;;8.26;100.00;99831.19;6154626;23;20347;-85
2023/12/21 08:50:54;;;;;;;9.10;3.13;;;;;;;8.68;100.00;99883.19;6154279;23;20021;-78
2023/12/21 08:53:19;;;;;;;12.43;3.95;;;;;;;8.68;100.00;99878.88;6154606;23;20005;-80
2023/12/21 08:55:45;;;;;;;9.18;3.80;;;;;;;8.69;100.00;99870.22;6154470;23;20012;-79
2023/12/21 08:58:10;;;;;;;10.95;3.90;;;;;;;8.63;100.00;99868.88;6154554;23;20013;-87
2023/12/21 09:00:36;;;;;;;11.18;3.63;;;;;;;8.70;100.00;99860.72;6154370;23;20427;-78
2023/12/21 09:03:01;;;;;;;9.88;3.65;;;;;;;8.66;100.00;99844.69;6154762;23;20032;-83
2023/12/21 09:05:26;;;;;;;10.15;3.78;;;;;;;8.73;100.00;99835.59;6154390;23;20323;-77
2023/12/21 09:07:52;;;;;;;10.38;3.55;;;;;;;8.39;100.00;99790.03;6128591;23;20009;-86
2023/12/21 09:10:17;;;;;;;11.52;4.10;;;;;;;8.81;100.00;99871.09;6155236;23;20005;-84
2023/12/21 09:12:43;;;;;;;9.32;3.25;;;;;;;8.88;100.00;99860.25;6154373;23;20009;-84
2023/12/21 09:15:08;;;;;;;10.75;3.33;;;;;;;8.96;100.00;99859.72;6156252;23;20029;-83
2023/12/21 09:17:34;;;;;;;10.88;2.70;;;;;;;9.06;100.00;99860.69;6156630;23;20420;-84
2023/12/21 09:20:00;;;;;;;7.97;2.15;;;;;;;9.10;100.00;99836.34;6156765;23;20080;-84
2023/12/21 09:22:25;;;;;;;11.88;2.70;;;;;;;9.14;100.00;99845.50;6156350;23;20056;-81
2023/12/21 09:24:50;;;;;;;9.38;2.60;;;;;;;8.90;100.00;99786.28;6156621;23;20012;-84
2023/12/21 09:27:16;;;;;;;11.80;2.80;;;;;;;9.11;100.00;99814.00;6156673;23;20316;-83
2023/12/21 09:29:42;;;;;;;7.78;2.10;;;;;;;9.09;100.00;99806.38;6156441;23;20091;-82
2023/12/21 09:32:08;;;;;;;9.40;2.50;;;;;;;9.12;100.00;99797.59;6156542;23;20368;-78
2023/12/21 09:34:33;;;;;;;10.90;2.55;;;;;;;9.21;100.00;99817.53;6156516;23;20077;-77
2023/12/21 09:36:59;;;;;;;6.05;2.05;;;;;;;9.22;100.00;99834.63;6156357;23;20033;-77
2023/12/21 09:39:24;;;;;;;8.85;2.20;;;;;;;9.29;100.00;99829.84;6156583;23;20008;-77
2023/12/21 09:41:50;;;;;;;12.40;2.30;;;;;;;9.36;100.00;99839.59;6129508;23;20424;-77
2023/12/21 09:44:17;;;;;;;8.65;1.80;;;;;;;9.41;100.00;99832.34;6156026;23;20044;-82
2023/12/21 09:46:46;;;;;;;7.35;1.98;;;;;;;9.36;100.00;99802.72;6156224;23;20012;-77
2023/12/21 09:49:14;;;;;;;7.47;1.70;;;;;;;9.42;100.00;99784.22;6156027;23;20455;-77
2023/12/21 09:51:41;;;;;;;10.77;2.08;;;;;;;9.63;100.00;99797.22;6156057;23;20305;-77
2023/12/21 09:54:08;;;;;;;8.15;1.73;;;;;;;9.72;100.00;99809.44;6156424;23;20005;-78
2023/12/21 09:56:34;;;;;;;9.85;1.80;;;;;;;9.78;100.00;99814.13;6156229;23;20018;-78
2023/12/21 09:59:00;;;;;;;8.07;1.67;;;;;;;9.84;100.00;99808.53;6156229;23;20371;-78
2023/12/21 10:01:26;;;;;;;11.93;2.22;;;;;;;9.81;100.00;99798.41;6155760;23;20002;-78
2023/12/21 10:03:51;;;;;;;6.72;1.55;;;;;;;9.73;100.00;99799.03;6155708;23;20104;-78
2023/12/21 10:06:17;;;;;;;13.07;2.10;;;;;;;9.85;100.00;99807.59;6155921;23;20005;-82
2023/12/21 10:08:43;;;;;;;11.57;2.28;;;;;;;9.72;100.00;99788.81;6156283;23;20085;-75
2023/12/21 10:11:08;;;;;;;10.13;2.17;;;;;;;9.71;100.00;99777.69;6156134;23;20068;-79
2023/12/21 10:13:35;;;;;;;9.65;1.88;;;;;;;9.93;100.00;99804.41;6156131;23;20009;-76
2023/12/21 10:16:03;;;;;;;7.40;1.52;;;;;;;10.04;100.00;99802.66;6155252;23;20447;-77
2023/12/21 10:18:29;;;;;;;11.95;1.90;;;;;;;10.12;100.00;99812.38;6155751;23;20063;-78
2023/12/21 10:20:55;;;;;;;9.32;1.92;;;;;;;9.79;100.00;99756.47;6156082;23;20012;-77
2023/12/21 10:23:27;;;;;;;8.50;1.92;;;;;;;9.85;100.00;99758.59;6155792;23;20060;-75
2023/12/21 10:25:54;;;;;;;8.05;1.45;;;;;;;9.92;100.00;99775.22;6132596;23;20018;-73
2023/12/21 10:28:23;;;;;;;7.32;1.60;;;;;;;10.22;100.00;99799.59;6126282;23;20077;-76
2023/12/21 10:30:54;;;;;;;7.63;1.48;;;;;;;10.19;100.00;99771.44;6125716;23;20077;-75
2023/12/21 10:33:19;;;;;;;6.82;1.60;;;;;;;10.34;100.00;99802.06;6125931;23;20006;-79
2023/12/21 10:35:44;;;;;;;7.47;1.55;;;;;;;10.35;100.00;99787.41;6125937;23;20314;-77
2023/12/21 10:38:10;;;;;;;6.20;1.20;;;;;;;10.42;100.00;99787.72;6126092;23;20017;-79
2023/12/21 10:40:35;;;;;;;5.22;1.10;;;;;;;10.48;100.00;99793.22;6126354;23;20085;-80
2023/12/21 10:43:01;;;;;;;7.63;1.55;;;;;;;10.47;100.00;99783.03;6126024;23;20036;-81
2023/12/21 10:45:26;;;;;;;5.15;1.23;;;;;;;10.33;100.00;99786.72;6126062;23;20341;-76
2023/12/21 10:47:53;;;;;;;5.35;1.17;;;;;;;10.37;100.00;99774.38;6126078;23;20006;-76
2023/12/21 10:50:19;;;;;;;6.43;1.40;;;;;;;10.28;100.00;99802.53;6125925;23;20098;-78
2023/12/21 10:52:46;;;;;;;3.25;1.10;;;;;;;10.04;100.00;99756.22;6125883;23;20005;-76
2023/12/21 10:55:15;;;;;;;6.13;1.35;;;;;;;10.13;100.00;99808.88;6126471;23;20006;-79
2023/12/21 10:57:45;;;;;;;5.88;1.15;;;;;;;10.17;100.00;99802.53;6125683;23;20017;-80
2023/12/21 11:00:13;;;;;;;6.67;1.20;;;;;;;10.23;100.00;99783.22;6125727;23;20006;-76
2023/12/21 11:02:48;;;;;;;7.97;1.40;;;;;;;10.23;100.00;99776.28;6125631;23;20057;-77
2023/12/21 11:05:19;;;;;;;6.10;1.13;;;;;;;10.19;100.00;99768.88;6125846;23;20416;-75
2023/12/21 11:07:48;;;;;;;;;;;;;;;10.18;100.00;99774.97;6126702;23;19998;-78
2023/12/21 11:10:18;;;;;;;6.40;1.10;;;;;;;10.10;100.00;99790.22;6126188;23;19936;-77
2023/12/21 11:12:43;;;;;;;6.30;1.35;;;;;;;9.93;100.00;99761.41;6125701;23;20052;-76
2023/12/21 11:15:11;;;;;;;4.65;1.08;;;;;;;9.96;100.00;99743.09;6126100;23;20416;-79